createdAt,value
2023-03-20T00:01:30.216Z,81.23
2023-03-20T00:03:57.558Z,81.84
2023-03-20T00:06:26.455Z,83.56
2023-03-20T00:08:55.161Z,86.22
2023-03-20T00:11:27.290Z,84.45
2023-03-20T00:13:56.383Z,84.98
2023-03-20T00:16:27.032Z,83.71
2023-03-20T00:18:53.547Z,83.31
2023-03-20T00:21:20.019Z,82.78
2023-03-20T00:23:46.525Z,82.07
2023-03-20T00:26:15.932Z,81.44
2023-03-20T00:28:45.500Z,81.30
2023-03-20T00:31:25.711Z,80.76
2023-03-20T00:34:00.733Z,80.27
2023-03-20T00:36:28.337Z,79.46
2023-03-20T00:38:55.868Z,79.25
2023-03-20T00:41:31.518Z,78.89
2023-03-20T00:44:03.335Z,79.11
2023-03-20T00:46:37.472Z,79.95
2023-03-20T00:49:04.069Z,79.61
2023-03-20T00:51:30.532Z,80.02
2023-03-20T00:53:57.471Z,79.29
2023-03-20T00:56:41.833Z,79.29
2023-03-20T00:59:20.392Z,78.81
2023-03-20T01:01:47.001Z,78.76
2023-03-20T01:04:17.058Z,78.12
2023-03-20T01:06:44.136Z,78.44
2023-03-20T01:09:10.622Z,77.90
2023-03-20T01:11:38.430Z,77.18
2023-03-20T01:14:12.260Z,78.00
2023-03-20T01:16:39.207Z,78.63
2023-03-20T01:19:05.937Z,79.98
2023-03-20T01:21:32.429Z,79.76
2023-03-20T01:23:58.896Z,80.06
2023-03-20T01:26:37.584Z,77.87
2023-03-20T01:29:15.899Z,77.59
2023-03-20T01:31:42.419Z,77.91
2023-03-20T01:34:11.010Z,77.58
2023-03-20T01:36:38.627Z,77.08
2023-03-20T01:39:05.554Z,77.06
2023-03-20T01:41:32.788Z,76.78
2023-03-20T01:44:17.926Z,76.98
2023-03-20T01:46:44.621Z,76.47
2023-03-20T01:49:20.115Z,77.64
2023-03-20T01:51:47.797Z,76.51
2023-03-20T01:54:20.902Z,75.02
2023-03-20T01:56:57.318Z,74.45
2023-03-20T01:59:36.293Z,74.60
2023-03-20T02:02:05.221Z,76.37
2023-03-20T02:04:38.739Z,75.46
2023-03-20T02:07:08.392Z,76.74
2023-03-20T02:09:34.880Z,76.30
2023-03-20T02:12:03.061Z,75.43
2023-03-20T02:14:30.658Z,76.25
2023-03-20T02:16:57.214Z,76.36
2023-03-20T02:19:31.437Z,74.77
2023-03-20T02:22:16.615Z,74.11
2023-03-20T02:25:29.666Z,72.79
2023-03-20T02:28:24.288Z,72.92
2023-03-20T02:31:20.188Z,74.74
2023-03-20T02:34:16.928Z,75.30
2023-03-20T02:37:02.004Z,74.66
2023-03-20T02:39:51.961Z,74.92
2023-03-20T02:42:27.402Z,75.33
2023-03-20T02:45:16.660Z,77.15
2023-03-20T02:48:08.276Z,75.93
2023-03-20T02:50:50.860Z,75.86
2023-03-20T02:53:46.234Z,75.88
2023-03-20T02:56:37.538Z,75.88
2023-03-20T02:59:06.850Z,75.33
2023-03-20T03:01:41.306Z,75.26
2023-03-20T03:04:25.900Z,74.91
2023-03-20T03:06:55.576Z,75.23
2023-03-20T03:09:40.866Z,75.84
2023-03-20T03:12:17.826Z,75.07
2023-03-20T03:14:48.386Z,75.02
2023-03-20T03:17:19.394Z,77.15
2023-03-20T03:19:52.631Z,75.66
2023-03-20T03:22:20.047Z,75.15
2023-03-20T03:24:49.579Z,74.14
2023-03-20T03:27:29.410Z,74.04
2023-03-20T03:30:14.237Z,74.46
2023-03-20T03:32:50.385Z,74.00
2023-03-20T03:35:20.967Z,74.70
2023-03-20T03:37:50.127Z,73.93
2023-03-20T03:40:45.898Z,75.62
2023-03-20T03:43:18.204Z,75.18
2023-03-20T03:46:13.450Z,75.16
2023-03-20T03:48:48.576Z,74.31
2023-03-20T03:51:21.266Z,73.87
2023-03-20T03:54:14.180Z,72.91
2023-03-20T03:56:47.098Z,72.06
2023-03-20T03:59:23.784Z,72.50
2023-03-20T04:01:52.623Z,72.62
2023-03-20T04:04:22.131Z,72.57
2023-03-20T04:06:48.941Z,71.90
2023-03-20T04:09:15.465Z,71.88
2023-03-20T04:11:42.065Z,71.88
2023-03-20T04:14:08.516Z,72.07
2023-03-20T04:16:35.067Z,72.15
2023-03-20T04:19:01.613Z,72.01
2023-03-20T04:21:28.094Z,71.34
2023-03-20T04:23:54.581Z,71.63
2023-03-20T04:26:21.093Z,72.65
2023-03-20T04:28:47.640Z,72.42
2023-03-20T04:31:14.286Z,71.69
2023-03-20T04:33:40.859Z,71.79
2023-03-20T04:36:08.668Z,71.87
2023-03-20T04:38:35.311Z,71.65
2023-03-20T04:41:02.201Z,71.79
2023-03-20T04:43:28.711Z,71.50
2023-03-20T04:45:55.313Z,70.58
2023-03-20T04:48:22.135Z,69.86
2023-03-20T04:50:48.667Z,69.35
2023-03-20T04:53:15.516Z,70.30
2023-03-20T04:55:42.014Z,70.79
2023-03-20T04:58:08.516Z,70.71
2023-03-20T05:00:35.074Z,72.27
2023-03-20T05:03:01.610Z,72.60
2023-03-20T05:05:28.133Z,72.69
2023-03-20T05:07:54.752Z,72.21
2023-03-20T05:10:21.584Z,71.68
2023-03-20T05:12:48.346Z,72.00
2023-03-20T05:15:14.855Z,71.80
2023-03-20T05:17:41.340Z,71.85
2023-03-20T05:20:08.401Z,71.96
2023-03-20T05:22:34.865Z,71.04
2023-03-20T05:25:01.354Z,72.04
2023-03-20T05:27:27.833Z,72.00
2023-03-20T05:29:54.315Z,72.25
2023-03-20T05:32:20.828Z,71.80
2023-03-20T05:34:47.379Z,72.44
2023-03-20T05:37:13.870Z,71.76
2023-03-20T05:39:40.411Z,72.84
2023-03-20T05:42:06.914Z,72.67
2023-03-20T05:44:33.418Z,72.20
2023-03-20T05:46:59.908Z,73.27
2023-03-20T05:49:26.409Z,73.45
2023-03-20T05:51:52.887Z,73.94
2023-03-20T05:54:19.474Z,74.74
2023-03-20T05:56:46.117Z,74.86
2023-03-20T05:59:12.630Z,75.22
2023-03-20T06:01:39.107Z,73.88
2023-03-20T06:04:05.697Z,74.06
2023-03-20T06:06:32.230Z,74.86
2023-03-20T06:08:58.737Z,74.37
2023-03-20T06:11:25.263Z,75.03
2023-03-20T06:13:51.770Z,74.25
2023-03-20T06:16:18.281Z,75.25
2023-03-20T06:18:44.806Z,74.67
2023-03-20T06:21:11.362Z,74.35
2023-03-20T06:23:37.871Z,73.96
2023-03-20T06:26:04.757Z,73.83
2023-03-20T06:28:31.324Z,73.37
2023-03-20T06:30:58.237Z,72.35
2023-03-20T06:33:24.740Z,71.39
2023-03-20T06:35:51.239Z,70.57
2023-03-20T06:38:17.745Z,69.67
2023-03-20T06:40:44.243Z,69.52
2023-03-20T06:43:10.921Z,68.78
2023-03-20T06:45:37.903Z,68.49
2023-03-20T06:48:08.976Z,68.48
2023-03-20T06:50:35.458Z,67.49
2023-03-20T06:53:01.938Z,66.52
2023-03-20T06:55:28.442Z,68.70
2023-03-20T06:57:55.083Z,67.66
2023-03-20T07:00:21.924Z,65.68
2023-03-20T07:02:48.459Z,66.60
2023-03-20T07:05:16.081Z,67.19
2023-03-20T07:07:42.625Z,66.00
2023-03-20T07:10:09.487Z,65.00
2023-03-20T07:12:35.950Z,65.12
2023-03-20T07:15:02.494Z,64.53
2023-03-20T07:17:29.004Z,63.73
2023-03-20T07:19:55.467Z,63.37
2023-03-20T07:22:28.365Z,61.38
2023-03-20T07:24:54.891Z,61.95
2023-03-20T07:27:21.370Z,63.23
2023-03-20T07:29:47.871Z,61.83
2023-03-20T07:32:14.380Z,60.97
2023-03-20T07:34:40.910Z,60.79
2023-03-20T07:37:07.458Z,60.03
2023-03-20T07:39:34.178Z,62.02
2023-03-20T07:42:00.666Z,60.00
2023-03-20T07:44:27.626Z,59.23
2023-03-20T07:46:54.285Z,60.02
2023-03-20T07:49:20.960Z,60.43
2023-03-20T07:51:49.752Z,60.85
2023-03-20T07:54:16.804Z,60.15
2023-03-20T07:56:43.697Z,59.45
2023-03-20T07:59:10.272Z,59.74
2023-03-20T08:01:36.849Z,60.84
2023-03-20T08:04:03.403Z,61.34
2023-03-20T08:06:30.067Z,63.71
2023-03-20T08:08:57.003Z,64.48
2023-03-20T08:11:23.461Z,64.86
2023-03-20T08:13:49.971Z,63.52
2023-03-20T08:16:16.499Z,60.09
2023-03-20T08:18:43.080Z,61.66
2023-03-20T08:21:09.605Z,63.34
2023-03-20T08:23:36.075Z,62.69
2023-03-20T08:26:02.781Z,62.63
2023-03-20T08:28:46.143Z,63.08
2023-03-20T08:31:13.037Z,63.25
2023-03-20T08:33:39.625Z,62.36
2023-03-20T08:36:06.641Z,62.17
2023-03-20T08:38:33.187Z,61.94
2023-03-20T08:40:59.672Z,60.16
2023-03-20T08:43:26.133Z,59.67
2023-03-20T08:45:52.996Z,57.25
2023-03-20T08:48:19.485Z,57.09
2023-03-20T08:50:47.490Z,58.93
2023-03-20T08:53:13.971Z,60.63
2023-03-20T08:55:40.469Z,62.32
2023-03-20T08:58:06.970Z,63.81
2023-03-20T09:00:33.451Z,63.72
2023-03-20T09:02:59.988Z,62.23
2023-03-20T09:05:26.457Z,60.24
2023-03-20T09:07:52.931Z,58.65
2023-03-20T09:10:19.444Z,58.21
2023-03-20T09:12:45.919Z,56.83
2023-03-20T09:15:12.669Z,54.52
2023-03-20T09:17:39.520Z,53.24
2023-03-20T09:20:06.541Z,57.74
2023-03-20T09:22:33.294Z,61.11
2023-03-20T09:24:59.799Z,61.92
2023-03-20T09:27:26.412Z,61.32
2023-03-20T09:29:52.934Z,60.54
2023-03-20T09:32:19.420Z,60.79
2023-03-20T09:34:45.954Z,62.34
2023-03-20T09:37:12.484Z,61.11
2023-03-20T09:39:38.979Z,59.69
2023-03-20T09:42:20.871Z,59.58
2023-03-20T09:45:05.607Z,58.80
2023-03-20T09:48:04.117Z,58.73
2023-03-20T09:51:17.874Z,58.36
2023-03-20T09:53:53.162Z,57.53
2023-03-20T09:56:25.808Z,57.32
2023-03-20T09:58:57.314Z,56.98
2023-03-20T10:01:29.986Z,57.29
2023-03-20T10:04:00.812Z,58.02
2023-03-20T10:06:27.553Z,55.89
2023-03-20T10:08:54.030Z,55.93
2023-03-20T10:11:30.704Z,55.81
2023-03-20T10:14:23.321Z,55.30
2023-03-20T10:17:04.035Z,55.96
2023-03-20T10:19:53.004Z,55.77
2023-03-20T10:22:39.689Z,55.91
2023-03-20T10:25:19.507Z,55.20
2023-03-20T10:27:58.603Z,55.40
2023-03-20T10:30:44.368Z,55.94
2023-03-20T10:33:36.073Z,58.56
2023-03-20T10:36:33.542Z,58.30
2023-03-20T10:39:05.921Z,59.65
2023-03-20T10:41:37.680Z,60.39
2023-03-20T10:44:06.033Z,61.37
2023-03-20T10:46:43.720Z,61.29
2023-03-20T10:49:19.589Z,61.37
2023-03-20T10:51:50.974Z,60.92
2023-03-20T10:54:36.590Z,60.11
2023-03-20T10:57:06.647Z,58.12
2023-03-20T10:59:46.668Z,57.52
2023-03-20T11:02:15.349Z,59.83
2023-03-20T11:04:42.057Z,61.05
2023-03-20T11:07:22.739Z,61.19
2023-03-20T11:10:04.454Z,60.34
2023-03-20T11:12:42.889Z,60.97
2023-03-20T11:15:32.092Z,60.66
2023-03-20T11:18:01.379Z,59.96
2023-03-20T11:20:36.344Z,58.79
2023-03-20T11:23:06.982Z,57.91
2023-03-20T11:25:49.196Z,56.87
2023-03-20T11:28:24.937Z,57.61
2023-03-20T11:31:04.776Z,57.23
2023-03-20T11:33:37.068Z,57.29
2023-03-20T11:36:12.471Z,57.17
2023-03-20T11:38:45.678Z,57.10
2023-03-20T11:41:27.257Z,58.78
2023-03-20T11:43:54.755Z,58.59
2023-03-20T11:46:24.028Z,58.32
2023-03-20T11:49:21.286Z,58.11
2023-03-20T11:51:48.282Z,57.44
2023-03-20T11:54:20.404Z,56.73
2023-03-20T11:56:58.620Z,55.72
2023-03-20T11:59:37.036Z,55.04
2023-03-20T12:02:21.752Z,53.80
2023-03-20T12:04:48.731Z,53.32
2023-03-20T12:07:33.210Z,53.09
2023-03-20T12:10:07.072Z,52.35
2023-03-20T12:12:40.591Z,52.16
2023-03-20T12:15:21.770Z,51.09
2023-03-20T12:18:09.634Z,50.45
2023-03-20T12:20:40.473Z,50.70
2023-03-20T12:23:09.900Z,50.94
2023-03-20T12:26:01.773Z,50.42
2023-03-20T12:28:46.679Z,49.63
2023-03-20T12:31:49.626Z,49.51
2023-03-20T12:34:34.455Z,48.96
2023-03-20T12:37:01.253Z,48.52
2023-03-20T12:39:37.333Z,49.33
2023-03-20T12:42:24.001Z,48.65
2023-03-20T12:45:22.909Z,47.34
2023-03-20T12:48:07.910Z,47.22
2023-03-20T12:50:44.952Z,47.67
2023-03-20T12:53:37.392Z,47.53
2023-03-20T12:56:22.137Z,46.91
2023-03-20T12:59:17.400Z,46.80
2023-03-20T13:02:43.937Z,46.08
2023-03-20T13:05:18.994Z,46.03
2023-03-20T13:08:28.929Z,45.69
2023-03-20T13:11:05.574Z,45.85
2023-03-20T13:13:54.801Z,44.96
2023-03-20T13:16:48.920Z,44.45
2023-03-20T13:19:34.618Z,44.56
2023-03-20T13:22:11.757Z,44.23
2023-03-20T13:25:02.551Z,43.75
2023-03-20T13:27:45.102Z,43.17
2023-03-20T13:30:34.853Z,42.42
2023-03-20T13:33:20.171Z,42.09
2023-03-20T13:35:59.087Z,41.95
2023-03-20T13:38:36.964Z,41.49
2023-03-20T13:41:07.444Z,41.29
2023-03-20T13:43:53.299Z,41.73
2023-03-20T13:46:28.741Z,41.53
2023-03-20T13:49:07.561Z,41.55
2023-03-20T13:51:57.275Z,41.33
2023-03-20T13:54:53.935Z,41.20
2023-03-20T13:58:03.538Z,40.31
2023-03-20T14:01:06.746Z,39.58
2023-03-20T14:03:45.908Z,39.16
2023-03-20T14:06:27.379Z,38.55
2023-03-20T14:08:54.807Z,37.67
2023-03-20T14:11:21.274Z,37.29
2023-03-20T14:13:54.085Z,37.10
2023-03-20T14:16:21.874Z,37.52
2023-03-20T14:19:03.943Z,37.32
2023-03-20T14:21:30.483Z,36.98
2023-03-20T14:24:03.981Z,36.58
2023-03-20T14:26:40.976Z,36.57
2023-03-20T14:29:10.550Z,37.03
2023-03-20T14:31:39.275Z,36.42
2023-03-20T14:34:23.834Z,36.18
2023-03-20T14:37:04.443Z,35.44
2023-03-20T14:40:13.971Z,35.06
2023-03-20T14:42:55.623Z,34.18
2023-03-20T14:45:27.694Z,33.83
2023-03-20T14:48:24.842Z,33.93
2023-03-20T14:50:58.745Z,32.70
2023-03-20T14:53:27.717Z,32.39
2023-03-20T14:55:56.871Z,31.74
2023-03-20T14:58:35.445Z,31.60
2023-03-20T15:01:08.532Z,31.65
2023-03-20T15:03:40.392Z,31.25
2023-03-20T15:06:09.122Z,30.28
2023-03-20T15:08:45.694Z,30.08
2023-03-20T15:11:14.472Z,29.59
2023-03-20T15:13:44.234Z,29.49
2023-03-20T15:16:15.921Z,29.33
2023-03-20T15:18:47.684Z,29.09
2023-03-20T15:21:19.104Z,28.86
2023-03-20T15:23:47.544Z,28.97
2023-03-20T15:26:16.646Z,28.55
2023-03-20T15:28:45.615Z,28.32
2023-03-20T15:31:31.476Z,28.50
2023-03-20T15:34:00.572Z,28.63
2023-03-20T15:36:30.127Z,28.73
2023-03-20T15:39:17.232Z,28.38
2023-03-20T15:41:58.531Z,28.20
2023-03-20T15:44:36.525Z,28.59
2023-03-20T15:47:10.485Z,28.67
2023-03-20T15:49:40.072Z,28.96
2023-03-20T15:52:20.346Z,29.22
2023-03-20T15:54:48.826Z,29.14
2023-03-20T15:57:30.497Z,28.96
2023-03-20T15:59:58.335Z,28.93
2023-03-20T16:02:26.854Z,28.71
2023-03-20T16:04:54.907Z,28.66
2023-03-20T16:07:29.428Z,28.89
2023-03-20T16:09:55.898Z,28.87
2023-03-20T16:12:22.383Z,28.77
2023-03-20T16:14:50.988Z,29.25
2023-03-20T16:17:20.533Z,29.65
2023-03-20T16:19:47.281Z,30.37
2023-03-20T16:22:30.042Z,30.66
2023-03-20T16:25:00.934Z,30.73
2023-03-20T16:27:35.210Z,30.87
2023-03-20T16:30:09.595Z,30.89
2023-03-20T16:32:40.327Z,30.47
2023-03-20T16:35:25.372Z,31.18
2023-03-20T16:37:58.221Z,31.27
2023-03-20T16:40:28.508Z,31.70
2023-03-20T16:42:55.214Z,31.52
2023-03-20T16:45:29.180Z,31.65
2023-03-20T16:48:10.565Z,32.21
2023-03-20T16:50:42.985Z,32.52
2023-03-20T16:53:16.047Z,32.59
2023-03-20T16:55:51.089Z,32.87
2023-03-20T16:58:29.259Z,32.70
2023-03-20T17:01:02.006Z,32.97
2023-03-20T17:03:30.221Z,33.40
2023-03-20T17:05:59.742Z,34.04
2023-03-20T17:08:40.655Z,34.27
2023-03-20T17:11:14.600Z,35.33
2023-03-20T17:13:41.931Z,35.63
2023-03-20T17:16:17.816Z,36.27
2023-03-20T17:18:46.197Z,36.86
2023-03-20T17:21:13.678Z,36.90
2023-03-20T17:23:40.738Z,37.52
2023-03-20T17:26:11.658Z,37.73
2023-03-20T17:28:38.756Z,38.21
2023-03-20T17:31:05.505Z,38.65
2023-03-20T17:33:32.606Z,39.18
2023-03-20T17:36:00.473Z,39.44
2023-03-20T17:38:27.024Z,39.50
2023-03-20T17:40:53.644Z,39.99
2023-03-20T17:43:20.513Z,39.66
2023-03-20T17:45:47.686Z,40.39
2023-03-20T17:48:18.500Z,40.49
2023-03-20T17:50:46.514Z,41.42
2023-03-20T17:53:21.693Z,42.29
2023-03-20T17:55:48.205Z,43.15
2023-03-20T17:58:16.454Z,43.04
2023-03-20T18:00:43.807Z,44.03
2023-03-20T18:03:10.769Z,43.91
2023-03-20T18:05:37.562Z,44.41
2023-03-20T18:08:04.449Z,45.10
2023-03-20T18:10:32.294Z,45.80
2023-03-20T18:12:59.626Z,45.63
2023-03-20T18:15:26.577Z,45.91
2023-03-20T18:17:53.146Z,46.12
2023-03-20T18:20:32.513Z,45.97
2023-03-20T18:22:59.086Z,46.81
2023-03-20T18:25:25.816Z,46.43
2023-03-20T18:27:53.474Z,46.50
2023-03-20T18:30:24.357Z,47.23
2023-03-20T18:32:50.912Z,47.82
2023-03-20T18:35:17.439Z,48.48
2023-03-20T18:37:44.762Z,48.46
2023-03-20T18:40:18.648Z,48.65
2023-03-20T18:42:45.201Z,48.63
2023-03-20T18:45:12.379Z,48.71
2023-03-20T18:47:39.644Z,48.81
2023-03-20T18:50:22.597Z,49.05
2023-03-20T18:52:49.130Z,49.49
2023-03-20T18:55:16.420Z,49.98
2023-03-20T18:57:43.300Z,49.71
2023-03-20T19:00:23.016Z,50.23
2023-03-20T19:02:51.416Z,50.12
2023-03-20T19:05:19.093Z,50.54
2023-03-20T19:07:46.432Z,50.33
2023-03-20T19:10:32.852Z,50.40
2023-03-20T19:12:59.658Z,50.66
2023-03-20T19:15:29.583Z,51.01
2023-03-20T19:17:56.433Z,51.54
2023-03-20T19:20:30.857Z,51.44
2023-03-20T19:22:57.392Z,52.25
2023-03-20T19:25:23.899Z,53.00
2023-03-20T19:27:50.427Z,52.38
2023-03-20T19:30:16.958Z,52.16
2023-03-20T19:32:43.516Z,52.78
2023-03-20T19:38:01.949Z,53.55
2023-03-20T19:40:33.041Z,53.16
2023-03-20T19:43:02.858Z,53.13
2023-03-20T19:45:36.417Z,53.45
2023-03-20T19:48:11.153Z,53.38
2023-03-20T19:50:41.290Z,53.24
2023-03-20T19:53:11.173Z,53.51
2023-03-20T19:55:38.788Z,53.64
2023-03-20T19:58:06.545Z,53.53
2023-03-20T20:00:56.876Z,53.65
2023-03-20T20:03:25.378Z,54.18
2023-03-20T20:05:53.141Z,53.97
2023-03-20T20:08:30.958Z,54.26
2023-03-20T20:11:05.855Z,54.63
2023-03-20T20:13:34.504Z,54.78
2023-03-20T20:16:01.611Z,54.40
2023-03-20T20:18:29.344Z,54.83
2023-03-20T20:22:06.260Z,54.03
2023-03-20T20:23:43.363Z,54.38
2023-03-20T20:26:09.868Z,54.57
2023-03-20T20:28:36.385Z,55.33
2023-03-20T20:31:02.917Z,54.74
2023-03-20T20:33:29.590Z,55.06
2023-03-20T20:36:31.574Z,54.72
2023-03-20T20:38:51.039Z,54.34
2023-03-20T20:41:18.096Z,55.26
2023-03-20T20:46:31.362Z,55.77
2023-03-20T20:48:57.920Z,55.47
2023-03-20T20:51:24.482Z,55.87
2023-03-20T20:53:50.958Z,55.73
2023-03-20T20:56:17.419Z,55.59
2023-03-20T20:58:43.925Z,55.84
2023-03-20T21:01:10.381Z,56.30
2023-03-20T21:03:36.892Z,55.66
2023-03-20T21:06:06.494Z,55.99
2023-03-20T21:08:32.985Z,55.83
2023-03-20T21:10:59.445Z,55.61
2023-03-20T21:13:25.917Z,56.28
2023-03-20T21:15:59.403Z,55.96
2023-03-20T21:18:26.241Z,55.73
2023-03-20T21:20:52.777Z,56.03
2023-03-20T21:23:19.254Z,56.06
2023-03-20T21:25:47.776Z,56.76
2023-03-20T21:28:14.912Z,56.89
2023-03-20T21:30:49.798Z,57.19
2023-03-20T21:33:22.983Z,57.05
2023-03-20T21:35:51.874Z,56.84
2023-03-20T21:41:10.640Z,57.85
2023-03-20T21:43:37.664Z,57.38
2023-03-20T21:46:45.977Z,57.71
2023-03-20T21:49:41.069Z,57.70
2023-03-20T21:55:04.026Z,57.72
2023-03-20T22:02:48.864Z,57.54
2023-03-20T22:05:55.682Z,57.22
2023-03-20T22:11:42.424Z,57.11
2023-03-20T22:22:40.199Z,57.92
2023-03-20T22:25:31.554Z,57.53
2023-03-20T22:31:17.311Z,57.93
2023-03-20T22:44:53.097Z,58.62
2023-03-20T22:46:59.603Z,58.20
2023-03-20T22:49:26.066Z,58.56
2023-03-20T22:52:11.279Z,58.27
2023-03-20T22:54:39.047Z,58.40
2023-03-20T22:57:05.554Z,58.39
2023-03-20T22:59:32.194Z,58.72
2023-03-20T23:01:58.699Z,59.07
2023-03-20T23:04:25.330Z,58.94
2023-03-20T23:06:51.869Z,59.02
2023-03-20T23:09:18.359Z,59.47
2023-03-20T23:11:45.111Z,60.02
2023-03-20T23:14:21.601Z,59.03
2023-03-20T23:16:48.529Z,59.54
2023-03-20T23:19:15.028Z,59.47
2023-03-20T23:21:41.518Z,59.57
2023-03-20T23:24:08.338Z,58.85
2023-03-20T23:26:34.954Z,60.09
2023-03-20T23:29:01.670Z,60.01
2023-03-20T23:31:28.220Z,59.25
2023-03-20T23:33:57.592Z,59.15
2023-03-20T23:36:35.963Z,59.44
2023-03-20T23:39:08.503Z,59.68
2023-03-20T23:44:21.861Z,59.66
2023-03-20T23:46:48.614Z,60.08
2023-03-20T23:49:15.534Z,59.23
2023-03-20T23:51:42.241Z,59.97
2023-03-20T23:54:08.766Z,60.20
2023-03-20T23:56:35.319Z,60.06
2023-03-20T23:59:11.386Z,59.97
